createdAt,value
2022-09-28T00:01:21.432Z,11.14
2022-09-28T00:04:22.936Z,11.12
2022-09-28T00:07:24.320Z,11.10
2022-09-28T00:10:25.733Z,11.08
2022-09-28T00:13:28.136Z,11.18
2022-09-28T00:16:32.002Z,11.18
2022-09-28T00:19:33.863Z,11.09
2022-09-28T00:22:35.241Z,10.97
2022-09-28T00:25:36.907Z,10.94
2022-09-28T00:28:38.278Z,10.93
2022-09-28T00:31:39.768Z,10.94
2022-09-28T00:34:45.728Z,10.99
2022-09-28T00:37:48.760Z,10.94
2022-09-28T00:40:50.194Z,10.94
2022-09-28T00:43:52.721Z,10.95
2022-09-28T00:47:31.818Z,10.86
2022-09-28T00:50:37.196Z,10.89
2022-09-28T00:53:41.554Z,10.94
2022-09-28T00:56:47.743Z,10.84
2022-09-28T00:59:49.941Z,10.86
2022-09-28T01:02:51.336Z,10.80
2022-09-28T01:05:54.871Z,10.80
2022-09-28T01:09:00.282Z,10.76
2022-09-28T01:12:02.004Z,10.76
2022-09-28T01:15:05.467Z,10.82
2022-09-28T01:18:34.407Z,10.82
2022-09-28T01:21:53.917Z,10.81
2022-09-28T01:25:25.058Z,10.83
2022-09-28T01:28:28.767Z,10.90
2022-09-28T01:31:33.836Z,10.91
2022-09-28T01:34:54.378Z,11.00
2022-09-28T01:38:04.639Z,10.96
2022-09-28T01:41:07.114Z,11.00
2022-09-28T01:44:13.882Z,11.03
2022-09-28T01:47:20.226Z,11.02
2022-09-28T01:50:25.629Z,11.04
2022-09-28T01:53:44.830Z,11.08
2022-09-28T01:57:13.787Z,11.07
2022-09-28T02:00:19.404Z,11.01
2022-09-28T02:03:33.200Z,10.97
2022-09-28T02:06:42.079Z,11.01
2022-09-28T02:09:48.924Z,11.02
2022-09-28T02:12:58.024Z,11.03
2022-09-28T02:16:25.708Z,11.03
2022-09-28T02:19:30.047Z,11.06
2022-09-28T02:22:45.609Z,11.10
2022-09-28T02:25:53.657Z,11.13
2022-09-28T02:28:56.010Z,11.10
2022-09-28T02:31:57.568Z,11.11
2022-09-28T02:34:59.298Z,11.16
2022-09-28T02:38:00.842Z,11.19
2022-09-28T02:41:30.906Z,11.23
2022-09-28T02:44:51.960Z,11.24
2022-09-28T02:48:07.026Z,11.22
2022-09-28T02:51:26.102Z,11.14
2022-09-28T02:54:36.791Z,11.17
2022-09-28T02:57:53.490Z,11.10
2022-09-28T03:01:19.783Z,11.11
2022-09-28T03:04:24.147Z,11.17
2022-09-28T03:07:37.510Z,11.17
2022-09-28T03:10:46.392Z,11.13
2022-09-28T03:13:48.840Z,11.11
2022-09-28T03:16:51.291Z,11.17
2022-09-28T03:19:54.245Z,11.11
2022-09-28T03:23:22.903Z,11.18
2022-09-28T03:26:17.950Z,11.16
2022-09-28T03:29:22.628Z,11.21
2022-09-28T03:32:31.086Z,11.12
2022-09-28T03:35:33.834Z,11.10
2022-09-28T03:38:35.198Z,11.10
2022-09-28T03:41:36.914Z,11.18
2022-09-28T03:44:38.710Z,11.25
2022-09-28T03:47:45.399Z,11.17
2022-09-28T03:50:46.776Z,11.14
2022-09-28T03:53:48.218Z,11.12
2022-09-28T03:56:50.158Z,11.25
2022-09-28T03:59:51.626Z,11.16
2022-09-28T04:02:53.637Z,11.19
2022-09-28T04:05:55.173Z,11.17
2022-09-28T04:08:57.735Z,11.10
2022-09-28T04:12:04.175Z,11.14
2022-09-28T04:15:07.636Z,11.14
2022-09-28T04:18:10.987Z,11.15
2022-09-28T04:21:31.782Z,11.07
2022-09-28T04:24:39.612Z,10.99
2022-09-28T04:28:00.284Z,10.94
2022-09-28T04:31:02.000Z,10.91
2022-09-28T04:34:03.438Z,10.97
2022-09-28T04:37:05.008Z,11.03
2022-09-28T04:40:07.412Z,10.90
2022-09-28T04:43:08.975Z,10.85
2022-09-28T04:46:10.800Z,10.77
2022-09-28T04:49:18.669Z,10.85
2022-09-28T04:52:26.637Z,10.84
2022-09-28T04:55:32.460Z,10.80
2022-09-28T04:58:37.973Z,10.76
2022-09-28T05:01:39.879Z,10.80
2022-09-28T05:05:13.377Z,10.72
2022-09-28T05:08:50.010Z,10.65
2022-09-28T05:11:52.978Z,10.63
2022-09-28T05:14:56.600Z,10.73
2022-09-28T05:17:57.985Z,10.65
2022-09-28T05:21:12.932Z,10.67
2022-09-28T05:24:15.123Z,10.66
2022-09-28T05:27:20.988Z,10.65
2022-09-28T05:30:33.382Z,10.74
2022-09-28T05:33:57.311Z,10.60
2022-09-28T05:36:59.168Z,10.63
2022-09-28T05:40:00.725Z,10.61
2022-09-28T05:43:02.340Z,10.76
2022-09-28T05:46:05.667Z,10.84
2022-09-28T05:49:09.315Z,10.81
2022-09-28T05:52:11.499Z,10.81
2022-09-28T05:55:13.831Z,10.71
2022-09-28T05:58:16.902Z,10.71
2022-09-28T06:01:18.801Z,10.68
2022-09-28T06:04:20.888Z,10.63
2022-09-28T06:07:23.791Z,10.70
2022-09-28T06:10:26.826Z,10.75
2022-09-28T06:13:32.006Z,10.77
2022-09-28T06:16:34.778Z,10.83
2022-09-28T06:19:36.264Z,10.94
2022-09-28T06:22:55.882Z,10.76
2022-09-28T06:25:59.065Z,10.81
2022-09-28T06:29:00.643Z,10.87
2022-09-28T06:32:02.222Z,10.85
2022-09-28T06:35:04.024Z,10.84
2022-09-28T06:38:05.475Z,10.86
2022-09-28T06:41:07.357Z,10.90
2022-09-28T06:44:08.930Z,11.00
2022-09-28T06:47:28.758Z,11.07
2022-09-28T06:50:47.426Z,11.11
2022-09-28T06:54:11.199Z,11.08
2022-09-28T06:57:22.651Z,11.04
2022-09-28T07:00:24.073Z,11.06
2022-09-28T07:03:26.367Z,10.99
2022-09-28T07:06:47.964Z,10.97
2022-09-28T07:10:09.968Z,10.99
2022-09-28T07:13:49.941Z,11.09
2022-09-28T07:17:12.212Z,11.13
2022-09-28T07:20:19.113Z,11.24
2022-09-28T07:23:22.628Z,11.38
2022-09-28T07:26:45.335Z,11.46
2022-09-28T07:30:07.769Z,11.52
2022-09-28T07:33:18.897Z,11.59
2022-09-28T07:36:26.697Z,11.65
2022-09-28T07:39:28.268Z,11.59
2022-09-28T07:42:30.763Z,11.71
2022-09-28T07:45:36.019Z,11.85
2022-09-28T07:48:39.789Z,12.02
2022-09-28T07:51:56.497Z,12.15
2022-09-28T07:55:11.069Z,12.23
2022-09-28T07:58:32.737Z,12.50
2022-09-28T08:01:49.366Z,12.55
2022-09-28T08:04:51.790Z,12.57
2022-09-28T08:07:53.221Z,12.57
2022-09-28T08:10:57.218Z,12.86
2022-09-28T08:14:17.641Z,12.99
2022-09-28T08:17:50.812Z,12.89
2022-09-28T08:21:13.249Z,12.57
2022-09-28T08:24:16.032Z,12.38
2022-09-28T08:27:18.330Z,12.51
2022-09-28T08:30:20.003Z,12.79
2022-09-28T08:33:44.597Z,12.90
2022-09-28T08:37:05.492Z,12.99
2022-09-28T08:40:26.026Z,13.05
2022-09-28T08:43:55.736Z,12.92
2022-09-28T08:47:33.295Z,12.74
2022-09-28T08:51:27.582Z,12.66
2022-09-28T08:54:54.489Z,12.59
2022-09-28T08:58:09.358Z,12.62
2022-09-28T09:01:18.899Z,12.55
2022-09-28T09:04:20.554Z,12.58
2022-09-28T09:08:04.328Z,12.58
2022-09-28T09:11:44.244Z,12.64
2022-09-28T09:15:11.811Z,12.77
2022-09-28T09:18:36.373Z,12.72
2022-09-28T09:22:11.429Z,12.54
2022-09-28T09:25:16.208Z,12.51
2022-09-28T09:28:29.778Z,12.50
2022-09-28T09:31:46.293Z,12.71
2022-09-28T09:35:05.527Z,12.72
2022-09-28T09:38:58.147Z,12.84
2022-09-28T09:42:47.914Z,12.99
2022-09-28T09:46:31.176Z,13.39
2022-09-28T09:50:11.272Z,13.50
2022-09-28T09:53:36.091Z,13.07
2022-09-28T09:56:48.698Z,13.07
2022-09-28T10:00:14.919Z,13.24
2022-09-28T10:03:31.637Z,13.67
2022-09-28T10:06:54.182Z,13.83
2022-09-28T10:09:58.312Z,13.85
2022-09-28T10:13:18.262Z,13.94
2022-09-28T10:16:20.238Z,14.14
2022-09-28T10:19:35.326Z,14.14
2022-09-28T10:22:57.772Z,13.97
2022-09-28T10:26:05.793Z,13.92
2022-09-28T10:29:17.615Z,13.80
2022-09-28T10:32:25.197Z,13.56
2022-09-28T10:35:41.422Z,13.34
2022-09-28T10:38:47.669Z,13.18
2022-09-28T10:42:05.300Z,13.28
2022-09-28T10:45:13.775Z,13.49
2022-09-28T10:48:20.830Z,13.93
2022-09-28T10:51:44.076Z,14.25
2022-09-28T10:54:53.693Z,14.09
2022-09-28T10:57:56.699Z,14.19
2022-09-28T11:01:15.029Z,14.28
2022-09-28T11:04:22.026Z,14.35
2022-09-28T11:07:33.346Z,14.17
2022-09-28T11:10:35.615Z,13.97
2022-09-28T11:13:50.062Z,13.77
2022-09-28T11:17:16.207Z,13.65
2022-09-28T11:20:27.354Z,13.52
2022-09-28T11:23:31.071Z,13.41
2022-09-28T11:26:43.509Z,13.38
2022-09-28T11:29:57.531Z,13.50
2022-09-28T11:33:30.532Z,13.53
2022-09-28T11:37:24.542Z,13.54
2022-09-28T11:40:45.338Z,13.44
2022-09-28T11:44:02.273Z,13.45
2022-09-28T11:47:19.558Z,13.50
2022-09-28T11:50:52.032Z,14.03
2022-09-28T11:54:28.801Z,14.40
2022-09-28T11:57:36.573Z,14.66
2022-09-28T12:00:46.090Z,14.70
2022-09-28T12:04:00.329Z,14.79
2022-09-28T12:07:24.183Z,14.96
2022-09-28T12:10:50.586Z,14.88
2022-09-28T12:14:00.656Z,14.82
2022-09-28T12:17:20.103Z,14.78
2022-09-28T12:20:33.313Z,14.64
2022-09-28T12:23:37.994Z,14.71
2022-09-28T12:27:05.216Z,14.65
2022-09-28T12:30:16.493Z,14.45
2022-09-28T12:33:17.901Z,14.39
2022-09-28T12:36:43.967Z,14.31
2022-09-28T12:40:10.521Z,14.64
2022-09-28T12:43:46.011Z,14.72
2022-09-28T12:47:05.520Z,14.67
2022-09-28T12:50:42.731Z,14.60
2022-09-28T12:53:53.044Z,14.51
2022-09-28T12:57:25.153Z,14.53
2022-09-28T13:00:37.232Z,14.65
2022-09-28T13:03:50.738Z,14.53
2022-09-28T13:07:03.158Z,14.71
2022-09-28T13:10:33.706Z,14.62
2022-09-28T13:13:44.812Z,14.74
2022-09-28T13:17:32.279Z,14.87
2022-09-28T13:21:11.677Z,14.83
2022-09-28T13:24:32.066Z,14.85
2022-09-28T13:27:38.110Z,14.96
2022-09-28T13:30:40.548Z,15.16
2022-09-28T13:33:45.632Z,15.30
2022-09-28T13:37:09.733Z,15.60
2022-09-28T13:40:11.481Z,15.84
2022-09-28T13:43:28.542Z,15.70
2022-09-28T13:46:38.694Z,15.71
2022-09-28T13:50:00.329Z,15.83
2022-09-28T13:53:39.599Z,15.69
2022-09-28T13:57:02.804Z,15.79
2022-09-28T14:00:23.129Z,15.77
2022-09-28T14:03:43.258Z,15.91
2022-09-28T14:06:55.870Z,15.86
2022-09-28T14:10:17.997Z,15.54
2022-09-28T14:13:58.097Z,15.47
2022-09-28T14:17:19.477Z,15.37
2022-09-28T14:20:24.886Z,15.42
2022-09-28T14:23:59.076Z,15.58
2022-09-28T14:27:27.490Z,15.61
2022-09-28T14:30:37.962Z,15.88
2022-09-28T14:33:42.579Z,15.97
2022-09-28T14:37:07.094Z,16.39
2022-09-28T14:40:37.768Z,16.27
2022-09-28T14:43:45.432Z,15.99
2022-09-28T14:46:47.695Z,15.70
2022-09-28T14:50:00.275Z,15.59
2022-09-28T14:53:13.512Z,15.63
2022-09-28T14:56:16.134Z,15.45
2022-09-28T14:59:41.646Z,15.31
2022-09-28T15:02:49.172Z,15.31
2022-09-28T15:05:50.640Z,15.28
2022-09-28T15:08:52.187Z,15.28
2022-09-28T15:12:15.000Z,15.23
2022-09-28T15:15:26.352Z,15.08
2022-09-28T15:18:43.740Z,15.03
2022-09-28T15:21:47.611Z,15.29
2022-09-28T15:25:02.181Z,15.28
2022-09-28T15:28:17.925Z,15.13
2022-09-28T15:31:22.467Z,15.14
2022-09-28T15:34:47.841Z,15.14
2022-09-28T15:37:53.318Z,15.09
2022-09-28T15:40:55.157Z,14.97
2022-09-28T15:44:24.555Z,14.97
2022-09-28T15:47:28.287Z,14.86
2022-09-28T15:50:31.659Z,14.75
2022-09-28T15:53:33.651Z,14.97
2022-09-28T15:56:50.808Z,14.97
2022-09-28T15:59:59.116Z,14.98
2022-09-28T16:03:06.649Z,14.91
2022-09-28T16:06:10.335Z,15.03
2022-09-28T16:09:31.473Z,14.80
2022-09-28T16:12:53.960Z,14.74
2022-09-28T16:15:59.836Z,14.66
2022-09-28T16:19:02.631Z,14.57
2022-09-28T16:22:07.144Z,14.55
2022-09-28T16:25:18.251Z,14.58
2022-09-28T16:28:48.802Z,14.46
2022-09-28T16:31:52.589Z,14.38
2022-09-28T16:35:18.856Z,14.31
2022-09-28T16:38:20.822Z,14.19
2022-09-28T16:41:27.132Z,14.20
2022-09-28T16:44:30.589Z,14.08
2022-09-28T16:47:34.525Z,14.10
2022-09-28T16:50:35.893Z,14.14
2022-09-28T16:53:55.880Z,14.12
2022-09-28T16:56:57.353Z,14.04
2022-09-28T16:59:58.713Z,14.05
2022-09-28T17:03:00.109Z,14.07
2022-09-28T17:06:08.342Z,14.07
2022-09-28T17:09:12.823Z,13.98
2022-09-28T17:12:24.313Z,13.92
2022-09-28T17:15:26.070Z,13.95
2022-09-28T17:18:27.863Z,14.00
2022-09-28T17:21:29.246Z,14.01
2022-09-28T17:24:30.625Z,13.98
2022-09-28T17:27:32.346Z,13.96
2022-09-28T17:30:33.789Z,13.90
2022-09-28T17:33:35.282Z,13.91
2022-09-28T17:36:37.322Z,13.91
2022-09-28T17:39:38.687Z,13.85
2022-09-28T17:42:40.074Z,13.59
2022-09-28T17:45:41.585Z,13.42
2022-09-28T17:48:45.988Z,13.31
2022-09-28T17:51:47.435Z,13.27
2022-09-28T17:54:48.890Z,13.26
2022-09-28T17:57:50.695Z,13.21
2022-09-28T18:00:52.142Z,13.28
2022-09-28T18:03:53.522Z,13.33
2022-09-28T18:06:54.938Z,13.37
2022-09-28T18:09:59.281Z,13.34
2022-09-28T18:13:00.644Z,13.21
2022-09-28T18:16:02.891Z,13.12
2022-09-28T18:19:04.306Z,13.13
2022-09-28T18:22:05.686Z,13.11
2022-09-28T18:25:07.525Z,12.98
2022-09-28T18:28:10.893Z,12.98
2022-09-28T18:31:14.371Z,13.01
2022-09-28T18:34:16.022Z,13.02
2022-09-28T18:37:18.618Z,12.98
2022-09-28T18:40:20.363Z,12.94
2022-09-28T18:43:22.459Z,12.81
2022-09-28T18:46:26.945Z,12.82
2022-09-28T18:49:30.553Z,12.80
2022-09-28T18:52:31.929Z,12.78
2022-09-28T18:55:33.333Z,12.71
2022-09-28T18:58:36.140Z,12.74
2022-09-28T19:01:37.997Z,12.62
2022-09-28T19:04:39.856Z,12.69
2022-09-28T19:07:41.302Z,12.71
2022-09-28T19:10:44.487Z,12.69
2022-09-28T19:13:45.963Z,12.64
2022-09-28T19:16:47.377Z,12.54
2022-09-28T19:19:48.762Z,12.44
2022-09-28T19:22:51.133Z,12.34
2022-09-28T19:25:52.594Z,12.23
2022-09-28T19:28:55.747Z,12.21
2022-09-28T19:31:57.916Z,12.21
2022-09-28T19:34:59.403Z,12.20
2022-09-28T19:38:00.826Z,12.21
2022-09-28T19:41:02.704Z,12.20
2022-09-28T19:44:07.032Z,12.15
2022-09-28T19:47:08.749Z,12.07
2022-09-28T19:50:10.208Z,12.00
2022-09-28T19:53:12.338Z,11.97
2022-09-28T19:56:13.739Z,12.02
2022-09-28T19:59:15.486Z,12.03
2022-09-28T20:02:16.884Z,11.97
2022-09-28T20:05:18.861Z,11.93
2022-09-28T20:08:21.808Z,11.86
2022-09-28T20:11:23.830Z,11.84
2022-09-28T20:14:26.543Z,11.83
2022-09-28T20:17:32.212Z,11.86
2022-09-28T20:20:33.585Z,11.87
2022-09-28T20:23:36.128Z,11.86
2022-09-28T20:26:37.799Z,11.84
2022-09-28T20:29:39.193Z,11.80
2022-09-28T20:32:40.620Z,11.76
2022-09-28T20:35:44.234Z,11.71
2022-09-28T20:38:48.264Z,11.61
2022-09-28T20:41:49.669Z,11.61
2022-09-28T20:44:51.108Z,11.63
2022-09-28T20:47:52.596Z,11.57
2022-09-28T20:51:02.713Z,11.56
2022-09-28T20:54:04.800Z,11.59
2022-09-28T20:57:17.178Z,11.59
2022-09-28T21:00:18.674Z,11.64
2022-09-28T21:03:20.068Z,11.65
2022-09-28T21:06:23.960Z,11.64
2022-09-28T21:09:25.413Z,11.64
2022-09-28T21:12:29.410Z,11.61
2022-09-28T21:15:30.850Z,11.59
2022-09-28T21:18:32.374Z,11.60
2022-09-28T21:21:33.840Z,11.65
2022-09-28T21:24:35.306Z,11.67
2022-09-28T21:27:36.789Z,11.62
2022-09-28T21:30:39.517Z,11.55
2022-09-28T21:33:40.912Z,11.53
2022-09-28T21:36:43.400Z,11.51
2022-09-28T21:39:44.850Z,11.51
2022-09-28T21:42:46.371Z,11.49
2022-09-28T21:45:51.988Z,11.49
2022-09-28T21:48:53.704Z,11.48
2022-09-28T21:51:55.120Z,11.50
2022-09-28T21:54:56.522Z,11.50
2022-09-28T21:57:57.905Z,11.49
2022-09-28T22:01:10.934Z,11.53
2022-09-28T22:04:12.337Z,11.50
2022-09-28T22:07:13.852Z,11.46
2022-09-28T22:10:15.337Z,11.42
2022-09-28T22:13:17.153Z,11.36
2022-09-28T22:16:21.491Z,11.35
2022-09-28T22:19:22.926Z,11.38
2022-09-28T22:22:28.415Z,11.31
2022-09-28T22:25:30.485Z,11.30
2022-09-28T22:28:31.879Z,11.30
2022-09-28T22:31:36.496Z,11.31
2022-09-28T22:34:37.959Z,11.30
2022-09-28T22:37:39.343Z,11.28
2022-09-28T22:40:51.813Z,11.26
2022-09-28T22:43:54.485Z,11.25
2022-09-28T22:46:55.904Z,11.23
2022-09-28T22:49:57.456Z,11.18
2022-09-28T22:52:58.840Z,11.18
2022-09-28T22:56:01.457Z,11.14
2022-09-28T22:59:02.954Z,11.13
2022-09-28T23:02:04.487Z,11.09
2022-09-28T23:05:06.872Z,11.02
2022-09-28T23:08:08.250Z,10.94
2022-09-28T23:11:09.805Z,10.93
2022-09-28T23:14:12.451Z,10.89
2022-09-28T23:17:13.854Z,10.80
2022-09-28T23:20:15.344Z,10.80
2022-09-28T23:23:16.737Z,10.80
2022-09-28T23:26:21.009Z,10.80
2022-09-28T23:29:22.399Z,10.78
2022-09-28T23:32:26.536Z,10.80
2022-09-28T23:35:29.995Z,10.75
2022-09-28T23:38:31.485Z,10.72
2022-09-28T23:41:32.993Z,10.66
2022-09-28T23:44:34.408Z,10.65
2022-09-28T23:47:37.261Z,10.62
2022-09-28T23:50:38.650Z,10.57
2022-09-28T23:53:40.042Z,10.51
2022-09-28T23:56:41.514Z,10.43
2022-09-28T23:59:42.880Z,10.38
